createdAt,value
2023-04-02T00:00:12.712Z,96278.89
2023-04-02T00:03:04.047Z,96276.43
2023-04-02T00:05:52.595Z,96275.95
2023-04-02T00:08:25.262Z,96274.00
2023-04-02T00:11:02.754Z,96273.04
2023-04-02T00:13:37.315Z,96279.61
2023-04-02T00:16:08.583Z,96274.70
2023-04-02T00:18:42.844Z,96276.33
2023-04-02T00:21:19.815Z,96277.52
2023-04-02T00:23:48.003Z,96279.98
2023-04-02T00:26:50.172Z,96280.31
2023-04-02T00:29:19.871Z,96284.71
2023-04-02T00:31:50.372Z,96282.92
2023-04-02T00:34:23.076Z,96283.34
2023-04-02T00:36:53.715Z,96283.30
2023-04-02T00:39:28.637Z,96282.83
2023-04-02T00:42:05.332Z,96284.49
2023-04-02T00:44:42.952Z,96283.50
2023-04-02T00:47:21.402Z,96282.16
2023-04-02T00:50:12.537Z,96284.02
2023-04-02T00:52:43.313Z,96280.60
2023-04-02T00:55:14.507Z,96281.68
2023-04-02T00:57:45.041Z,96282.09
2023-04-02T01:00:29.397Z,96284.98
2023-04-02T01:03:16.872Z,96286.50
2023-04-02T01:06:03.748Z,96285.79
2023-04-02T01:08:37.898Z,96285.83
2023-04-02T01:12:13.970Z,96288.08
2023-04-02T01:14:49.459Z,96289.52
2023-04-02T01:17:33.062Z,96289.92
2023-04-02T01:20:36.794Z,96290.39
2023-04-02T01:23:17.187Z,96295.30
2023-04-02T01:26:08.267Z,96300.13
2023-04-02T01:29:02.758Z,96301.63
2023-04-02T01:31:33.563Z,96304.15
2023-04-02T01:34:03.904Z,96303.96
2023-04-02T01:36:50.310Z,96306.45
2023-04-02T01:39:27.080Z,96308.06
2023-04-02T01:42:22.710Z,96309.85
2023-04-02T01:44:53.947Z,96312.66
2023-04-02T01:47:28.924Z,96312.42
2023-04-02T01:50:21.238Z,96314.02
2023-04-02T01:52:56.271Z,96313.61
2023-04-02T01:55:48.955Z,96313.60
2023-04-02T01:58:26.341Z,96314.29
2023-04-02T02:01:27.941Z,96317.63
2023-04-02T02:03:56.326Z,96317.33
2023-04-02T02:06:24.899Z,96319.08
2023-04-02T02:09:05.146Z,96318.57
2023-04-02T02:11:34.146Z,96323.36
2023-04-02T02:14:12.198Z,96324.51
2023-04-02T02:16:44.040Z,96325.91
2023-04-02T02:19:31.336Z,96327.26
2023-04-02T02:22:19.807Z,96328.11
2023-04-02T02:24:49.085Z,96324.23
2023-04-02T02:27:23.208Z,96329.98
2023-04-02T02:29:55.626Z,96332.63
2023-04-02T02:32:29.877Z,96333.93
2023-04-02T02:35:11.415Z,96332.60
2023-04-02T02:37:47.989Z,96331.48
2023-04-02T02:40:27.703Z,96329.80
2023-04-02T02:42:59.955Z,96334.33
2023-04-02T02:45:34.119Z,96337.48
2023-04-02T02:48:04.932Z,96336.79
2023-04-02T02:50:33.976Z,96341.74
2023-04-02T02:53:07.905Z,96342.44
2023-04-02T02:55:37.651Z,96343.99
2023-04-02T02:58:26.440Z,96344.37
2023-04-02T03:01:01.872Z,96343.98
2023-04-02T03:03:34.384Z,96347.38
2023-04-02T03:06:08.618Z,96349.95
2023-04-02T03:08:46.598Z,96348.58
2023-04-02T03:11:35.356Z,96350.86
2023-04-02T03:14:29.568Z,96351.29
2023-04-02T03:17:21.790Z,96356.11
2023-04-02T03:19:55.296Z,96361.16
2023-04-02T03:22:41.631Z,96360.63
2023-04-02T03:25:50.006Z,96360.20
2023-04-02T03:28:27.505Z,96362.89
2023-04-02T03:31:02.358Z,96365.58
2023-04-02T03:33:36.528Z,96369.05
2023-04-02T03:36:23.280Z,96371.67
2023-04-02T03:39:00.419Z,96376.48
2023-04-02T03:42:06.647Z,96379.14
2023-04-02T03:44:39.604Z,96383.29
2023-04-02T03:47:19.001Z,96382.71
2023-04-02T03:50:11.862Z,96384.84
2023-04-02T03:52:41.460Z,96388.81
2023-04-02T03:55:20.931Z,96390.02
2023-04-02T03:57:55.257Z,96392.15
2023-04-02T04:00:37.316Z,96394.81
2023-04-02T04:03:19.003Z,96395.20
2023-04-02T04:05:57.623Z,96398.87
2023-04-02T04:08:34.401Z,96397.23
2023-04-02T04:11:09.274Z,96403.91
2023-04-02T04:13:47.437Z,96402.55
2023-04-02T04:16:26.578Z,96403.09
2023-04-02T04:19:09.456Z,96404.17
2023-04-02T04:21:37.816Z,96409.14
2023-04-02T04:24:27.153Z,96411.00
2023-04-02T04:27:21.718Z,96416.70
2023-04-02T04:30:36.290Z,96419.83
2023-04-02T04:33:26.159Z,96421.52
2023-04-02T04:36:01.890Z,96423.98
2023-04-02T04:38:39.192Z,96424.20
2023-04-02T04:41:24.504Z,96428.25
2023-04-02T04:44:18.430Z,96426.68
2023-04-02T04:47:32.158Z,96426.86
2023-04-02T04:50:14.705Z,96428.75
2023-04-02T04:52:44.025Z,96431.75
2023-04-02T04:55:45.851Z,96433.23
2023-04-02T04:58:23.272Z,96437.86
2023-04-02T05:00:55.631Z,96442.80
2023-04-02T05:03:38.959Z,96442.18
2023-04-02T05:06:39.124Z,96447.02
2023-04-02T05:09:22.751Z,96451.08
2023-04-02T05:12:07.888Z,96453.06
2023-04-02T05:14:42.699Z,96456.04
2023-04-02T05:17:21.796Z,96457.91
2023-04-02T05:20:01.074Z,96457.70
2023-04-02T05:22:40.202Z,96460.66
2023-04-02T05:25:25.774Z,96460.48
2023-04-02T05:28:00.516Z,96463.30
2023-04-02T05:30:28.689Z,96462.76
2023-04-02T05:33:00.655Z,96470.09
2023-04-02T05:35:34.569Z,96473.05
2023-04-02T05:38:06.727Z,96473.73
2023-04-02T05:40:41.042Z,96472.20
2023-04-02T05:43:15.045Z,96471.73
2023-04-02T05:45:52.028Z,96475.14
2023-04-02T05:48:28.241Z,96475.55
2023-04-02T05:50:59.036Z,96472.40
2023-04-02T05:53:36.946Z,96475.30
2023-04-02T05:56:28.452Z,96480.22
2023-04-02T05:59:11.670Z,96479.08
2023-04-02T06:01:49.623Z,96478.27
2023-04-02T06:04:34.745Z,96483.44
2023-04-02T06:07:16.029Z,96485.33
2023-04-02T06:10:24.808Z,96486.08
2023-04-02T06:13:03.767Z,96490.90
2023-04-02T06:15:37.680Z,96490.77
2023-04-02T06:18:20.186Z,96493.66
2023-04-02T06:20:49.481Z,96495.55
2023-04-02T06:23:30.893Z,96498.80
2023-04-02T06:26:00.789Z,96498.23
2023-04-02T06:28:52.817Z,96501.09
2023-04-02T06:31:25.414Z,96502.58
2023-04-02T06:33:56.518Z,96506.69
2023-04-02T06:36:27.267Z,96509.86
2023-04-02T06:39:07.034Z,96509.64
2023-04-02T06:41:35.491Z,96507.71
2023-04-02T06:44:38.367Z,96509.59
2023-04-02T06:47:24.474Z,96507.79
2023-04-02T06:50:02.471Z,96510.98
2023-04-02T06:52:40.481Z,96510.63
2023-04-02T06:55:44.395Z,96509.19
2023-04-02T06:58:14.692Z,96509.32
2023-04-02T07:00:46.135Z,96515.08
2023-04-02T07:03:22.123Z,96517.08
2023-04-02T07:05:50.607Z,96514.90
2023-04-02T07:08:18.887Z,96518.25
2023-04-02T07:10:47.864Z,96516.96
2023-04-02T07:13:18.857Z,96519.52
2023-04-02T07:15:50.430Z,96525.07
2023-04-02T07:18:42.197Z,96528.73
2023-04-02T07:21:11.076Z,96529.95
2023-04-02T07:23:39.655Z,96532.53
2023-04-02T07:26:09.555Z,96535.23
2023-04-02T07:28:37.532Z,96536.42
2023-04-02T07:31:19.274Z,96545.30
2023-04-02T07:33:47.373Z,96544.45
2023-04-02T07:36:18.384Z,96543.86
2023-04-02T07:38:46.976Z,96543.69
2023-04-02T07:41:16.295Z,96542.43
2023-04-02T07:43:44.495Z,96544.41
2023-04-02T07:46:16.736Z,96547.82
2023-04-02T07:48:45.333Z,96547.11
2023-04-02T07:51:23.134Z,96549.30
2023-04-02T07:53:55.662Z,96547.86
2023-04-02T07:56:25.451Z,96548.79
2023-04-02T07:58:53.505Z,96545.11
2023-04-02T08:01:26.731Z,96544.54
2023-04-02T08:03:56.690Z,96545.31
2023-04-02T08:06:25.976Z,96542.66
2023-04-02T08:08:54.382Z,96542.14
2023-04-02T08:11:22.377Z,96554.70
2023-04-02T08:13:50.732Z,96553.85
2023-04-02T08:16:18.771Z,96555.33
2023-04-02T08:18:47.978Z,96553.91
2023-04-02T08:21:16.741Z,96555.76
2023-04-02T08:23:45.354Z,96556.04
2023-04-02T08:26:18.893Z,96559.99
2023-04-02T08:28:47.145Z,96559.49
2023-04-02T08:31:15.444Z,96561.48
2023-04-02T08:33:43.701Z,96565.56
2023-04-02T08:36:19.226Z,96567.13
2023-04-02T08:38:47.611Z,96564.76
2023-04-02T08:41:27.713Z,96563.48
2023-04-02T08:44:16.321Z,96570.30
2023-04-02T08:46:52.209Z,96573.17
2023-04-02T08:49:32.402Z,96575.49
2023-04-02T08:52:01.118Z,96579.08
2023-04-02T08:54:34.338Z,96574.42
2023-04-02T08:57:36.218Z,96578.05
2023-04-02T09:00:10.338Z,96580.33
2023-04-02T09:02:43.682Z,96580.06
2023-04-02T09:05:23.927Z,96582.21
2023-04-02T09:07:54.357Z,96582.36
2023-04-02T09:10:31.863Z,96584.44
2023-04-02T09:13:01.556Z,96587.91
2023-04-02T09:15:36.117Z,96587.01
2023-04-02T09:18:16.864Z,96590.29
2023-04-02T09:20:46.131Z,96589.52
2023-04-02T09:23:19.795Z,96587.52
2023-04-02T09:26:03.605Z,96585.09
2023-04-02T09:28:32.913Z,96588.70
2023-04-02T09:31:27.099Z,96591.97
2023-04-02T09:33:55.244Z,96593.27
2023-04-02T09:36:26.770Z,96595.80
2023-04-02T09:39:07.074Z,96595.29
2023-04-02T09:41:37.168Z,96595.55
2023-04-02T09:44:13.044Z,96595.54
2023-04-02T09:47:23.215Z,96594.33
2023-04-02T09:49:52.187Z,96597.26
2023-04-02T09:52:26.763Z,96595.98
2023-04-02T09:55:15.560Z,96592.50
2023-04-02T09:57:44.068Z,96591.44
2023-04-02T10:00:32.562Z,96595.13
2023-04-02T10:03:23.402Z,96594.88
2023-04-02T10:06:13.559Z,96597.91
2023-04-02T10:08:44.107Z,96595.16
2023-04-02T10:11:17.302Z,96594.99
2023-04-02T10:14:01.439Z,96597.06
2023-04-02T10:16:40.798Z,96594.45
2023-04-02T10:19:26.578Z,96596.27
2023-04-02T10:21:56.712Z,96599.00
2023-04-02T10:24:28.331Z,96593.60
2023-04-02T10:27:02.761Z,96592.86
2023-04-02T10:29:39.954Z,96589.95
2023-04-02T10:32:23.377Z,96593.14
2023-04-02T10:35:03.373Z,96594.08
2023-04-02T10:37:43.347Z,96595.91
2023-04-02T10:40:17.481Z,96594.58
2023-04-02T10:42:51.914Z,96592.91
2023-04-02T10:45:42.602Z,96586.89
2023-04-02T10:48:42.759Z,96594.45
2023-04-02T10:51:28.534Z,96594.06
2023-04-02T10:54:17.578Z,96592.16
2023-04-02T10:56:51.059Z,96593.56
2023-04-02T10:59:32.524Z,96595.81
2023-04-02T11:02:04.056Z,96597.23
2023-04-02T11:04:44.270Z,96598.17
2023-04-02T11:07:23.667Z,96600.86
2023-04-02T11:09:56.458Z,96598.48
2023-04-02T11:12:46.698Z,96599.29
2023-04-02T11:15:20.011Z,96597.55
2023-04-02T11:17:48.710Z,96595.27
2023-04-02T11:20:47.748Z,96596.05
2023-04-02T11:23:19.144Z,96598.55
2023-04-02T11:25:47.903Z,96596.61
2023-04-02T11:28:25.786Z,96596.27
2023-04-02T11:30:54.999Z,96594.95
2023-04-02T11:33:39.184Z,96592.42
2023-04-02T11:36:48.982Z,96597.11
2023-04-02T11:39:54.114Z,96597.95
2023-04-02T11:42:26.485Z,96602.41
2023-04-02T11:44:55.687Z,96601.66
2023-04-02T11:47:25.938Z,96607.80
2023-04-02T11:50:04.401Z,96606.98
2023-04-02T11:52:49.901Z,96612.27
2023-04-02T11:55:25.242Z,96616.30
2023-04-02T11:58:09.807Z,96613.78
2023-04-02T12:01:18.617Z,96614.23
2023-04-02T12:03:52.753Z,96615.91
2023-04-02T12:06:55.109Z,96611.36
2023-04-02T12:09:31.058Z,96612.59
2023-04-02T12:12:02.219Z,96616.70
2023-04-02T12:14:43.294Z,96615.23
2023-04-02T12:17:31.715Z,96618.94
2023-04-02T12:20:08.417Z,96617.69
2023-04-02T12:22:41.293Z,96623.27
2023-04-02T12:25:24.679Z,96618.41
2023-04-02T12:28:20.136Z,96616.73
2023-04-02T12:30:50.045Z,96616.89
2023-04-02T12:33:30.859Z,96617.88
2023-04-02T12:36:01.448Z,96615.15
2023-04-02T12:38:33.508Z,96616.47
2023-04-02T12:41:05.401Z,96619.04
2023-04-02T12:43:34.595Z,96615.61
2023-04-02T12:46:05.835Z,96617.92
2023-04-02T12:48:35.440Z,96615.90
2023-04-02T12:51:04.711Z,96614.52
2023-04-02T12:53:41.486Z,96615.04
2023-04-02T12:56:21.451Z,96612.77
2023-04-02T12:58:55.743Z,96613.36
2023-04-02T13:01:27.729Z,96616.61
2023-04-02T13:04:01.929Z,96617.20
2023-04-02T13:06:33.364Z,96616.92
2023-04-02T13:09:04.266Z,96615.81
2023-04-02T13:11:39.969Z,96614.50
2023-04-02T13:14:18.412Z,96616.66
2023-04-02T13:16:47.030Z,96616.54
2023-04-02T13:19:17.808Z,96617.61
2023-04-02T13:21:46.193Z,96624.41
2023-04-02T13:24:18.561Z,96627.48
2023-04-02T13:26:49.646Z,96620.75
2023-04-02T13:29:17.974Z,96623.02
2023-04-02T13:31:46.252Z,96621.10
2023-04-02T13:34:14.908Z,96624.36
2023-04-02T13:36:42.904Z,96625.88
2023-04-02T13:39:11.178Z,96625.48
2023-04-02T13:41:48.665Z,96628.52
2023-04-02T13:44:29.398Z,96628.23
2023-04-02T13:46:58.730Z,96628.49
2023-04-02T13:49:27.869Z,96629.80
2023-04-02T13:51:59.195Z,96625.68
2023-04-02T13:54:51.523Z,96626.05
2023-04-02T13:57:19.531Z,96631.70
2023-04-02T13:59:47.427Z,96630.42
2023-04-02T14:02:18.890Z,96631.18
2023-04-02T14:04:51.113Z,96629.86
2023-04-02T14:07:57.716Z,96631.09
2023-04-02T14:10:44.029Z,96630.63
2023-04-02T14:13:31.163Z,96633.22
2023-04-02T14:15:59.116Z,96631.60
2023-04-02T14:18:33.137Z,96635.29
2023-04-02T14:21:19.734Z,96639.10
2023-04-02T14:24:04.708Z,96639.36
2023-04-02T14:27:08.207Z,96638.27
2023-04-02T14:29:45.594Z,96636.11
2023-04-02T14:32:44.752Z,96637.31
2023-04-02T14:35:28.348Z,96638.84
2023-04-02T14:38:24.161Z,96641.18
2023-04-02T14:40:55.089Z,96642.48
2023-04-02T14:43:45.378Z,96636.63
2023-04-02T14:46:13.918Z,96636.73
2023-04-02T14:48:54.490Z,96636.98
2023-04-02T14:51:40.929Z,96636.86
2023-04-02T14:54:12.887Z,96634.22
2023-04-02T14:57:12.931Z,96636.52
2023-04-02T14:59:59.727Z,96637.25
2023-04-02T15:02:47.580Z,96638.30
2023-04-02T15:05:21.354Z,96642.39
2023-04-02T15:07:56.688Z,96639.85
2023-04-02T15:10:34.698Z,96642.51
2023-04-02T15:13:08.226Z,96644.70
2023-04-02T15:15:46.958Z,96643.59
2023-04-02T15:18:17.436Z,96646.98
2023-04-02T15:21:20.083Z,96644.40
2023-04-02T15:23:51.124Z,96644.59
2023-04-02T15:26:31.440Z,96646.55
2023-04-02T15:29:25.850Z,96644.18
2023-04-02T15:32:04.418Z,96644.68
2023-04-02T15:34:39.254Z,96643.36
2023-04-02T15:37:16.941Z,96646.43
2023-04-02T15:40:07.005Z,96653.10
2023-04-02T15:42:41.186Z,96654.69
2023-04-02T15:45:12.189Z,96657.52
2023-04-02T15:47:53.834Z,96663.84
2023-04-02T15:50:46.431Z,96662.25
2023-04-02T15:53:43.676Z,96669.70
2023-04-02T15:56:39.189Z,96680.61
2023-04-02T15:59:10.134Z,96686.77
2023-04-02T16:02:10.426Z,96689.33
2023-04-02T16:04:53.885Z,96693.02
2023-04-02T16:07:25.147Z,96693.96
2023-04-02T16:10:05.717Z,96701.08
2023-04-02T16:12:37.045Z,96702.69
2023-04-02T16:15:31.753Z,96700.42
2023-04-02T16:18:18.447Z,96702.39
2023-04-02T16:20:48.790Z,96699.81
2023-04-02T16:23:22.678Z,96704.14
2023-04-02T16:26:10.822Z,96706.48
2023-04-02T16:29:16.370Z,96709.11
2023-04-02T16:31:57.045Z,96708.40
2023-04-02T16:35:05.027Z,96712.00
2023-04-02T16:38:36.203Z,96716.61
2023-04-02T16:41:18.060Z,96725.85
2023-04-02T16:43:59.361Z,96729.85
2023-04-02T16:46:46.137Z,96733.60
2023-04-02T16:49:46.203Z,96732.48
2023-04-02T16:52:39.588Z,96732.61
2023-04-02T16:55:26.364Z,96736.41
2023-04-02T16:58:20.142Z,96741.58
2023-04-02T17:01:11.845Z,96742.80
2023-04-02T17:03:58.633Z,96746.99
2023-04-02T17:06:42.406Z,96752.61
2023-04-02T17:09:33.014Z,96755.33
2023-04-02T17:12:36.716Z,96758.79
2023-04-02T17:15:32.542Z,96760.58
2023-04-02T17:18:02.550Z,96767.09
2023-04-02T17:20:31.333Z,96771.80
2023-04-02T17:22:59.608Z,96772.52
2023-04-02T17:25:34.108Z,96775.73
2023-04-02T17:28:03.233Z,96776.17
2023-04-02T17:30:31.311Z,96776.77
2023-04-02T17:32:59.418Z,96781.01
2023-04-02T17:35:53.598Z,96785.98
2023-04-02T17:38:31.051Z,96789.17
2023-04-02T17:41:02.101Z,96791.26
2023-04-02T17:44:11.849Z,96796.25
2023-04-02T17:47:05.404Z,96801.27
2023-04-02T17:50:17.706Z,96803.68
2023-04-02T17:52:57.333Z,96806.58
2023-04-02T17:55:40.594Z,96807.45
2023-04-02T17:58:46.328Z,96800.36
2023-04-02T18:01:45.323Z,96804.30
2023-04-02T18:04:32.243Z,96811.52
2023-04-02T18:07:18.849Z,96817.58
2023-04-02T18:09:55.734Z,96817.70
2023-04-02T18:12:41.297Z,96815.47
2023-04-02T18:15:09.283Z,96822.88
2023-04-02T18:18:06.015Z,96824.64
2023-04-02T18:20:46.697Z,96828.31
2023-04-02T18:23:33.794Z,96827.83
2023-04-02T18:26:13.855Z,96831.14
2023-04-02T18:28:53.000Z,96827.11
2023-04-02T18:31:56.175Z,96825.25
2023-04-02T18:34:37.590Z,96828.36
2023-04-02T18:37:09.114Z,96828.21
2023-04-02T18:39:57.586Z,96829.24
2023-04-02T18:42:53.675Z,96838.49
2023-04-02T18:45:24.733Z,96840.43
2023-04-02T18:48:14.303Z,96843.00
2023-04-02T18:50:46.263Z,96846.88
2023-04-02T18:53:18.127Z,96851.62
2023-04-02T18:56:08.240Z,96850.81
2023-04-02T18:58:52.864Z,96848.96
2023-04-02T19:04:22.621Z,96856.32
2023-04-02T19:07:01.722Z,96856.95
2023-04-02T19:09:41.202Z,96857.26
2023-04-02T19:12:23.647Z,96858.44
2023-04-02T19:14:52.536Z,96859.52
2023-04-02T19:17:38.766Z,96857.86
2023-04-02T19:20:25.975Z,96860.07
2023-04-02T19:23:18.106Z,96862.38
2023-04-02T19:26:05.104Z,96868.81
2023-04-02T19:28:59.513Z,96862.85
2023-04-02T19:31:48.952Z,96867.59
2023-04-02T19:34:35.701Z,96872.97
2023-04-02T19:37:15.712Z,96877.41
2023-04-02T19:40:05.422Z,96875.65
2023-04-02T19:42:43.680Z,96876.05
2023-04-02T19:45:25.323Z,96883.23
2023-04-02T19:47:54.244Z,96886.70
2023-04-02T19:50:22.894Z,96895.40
2023-04-02T19:52:51.245Z,96904.70
2023-04-02T19:55:19.342Z,96903.65
2023-04-02T19:57:47.416Z,96905.75
2023-04-02T20:00:16.306Z,96913.64
2023-04-02T20:02:44.505Z,96917.30
2023-04-02T20:05:13.572Z,96919.35
2023-04-02T20:07:41.643Z,96921.17
2023-04-02T20:10:10.535Z,96920.52
2023-04-02T20:12:38.474Z,96923.72
2023-04-02T20:15:07.592Z,96927.10
2023-04-02T20:17:35.795Z,96928.34
2023-04-02T20:20:04.652Z,96932.94
2023-04-02T20:22:32.633Z,96936.54
2023-04-02T20:25:00.913Z,96934.36
2023-04-02T20:27:28.971Z,96932.18
2023-04-02T20:29:57.133Z,96929.52
2023-04-02T20:32:25.371Z,96932.52
2023-04-02T20:34:54.349Z,96931.88
2023-04-02T20:37:22.754Z,96928.69
2023-04-02T20:39:51.099Z,96932.17
2023-04-02T20:42:19.541Z,96932.64
2023-04-02T20:44:47.623Z,96930.51
2023-04-02T20:47:16.519Z,96929.30
2023-04-02T20:49:44.581Z,96926.02
2023-04-02T20:52:12.547Z,96924.77
2023-04-02T20:54:40.847Z,96919.98
2023-04-02T20:57:09.161Z,96920.44
2023-04-02T20:59:37.376Z,96922.69
2023-04-02T21:02:05.657Z,96925.02
2023-04-02T21:04:34.171Z,96927.55
2023-04-02T21:07:02.203Z,96929.12
2023-04-02T21:09:30.267Z,96931.31
2023-04-02T21:11:58.261Z,96928.61
2023-04-02T21:14:26.422Z,96925.65
2023-04-02T21:16:54.495Z,96930.33
2023-04-02T21:19:22.751Z,96930.36
2023-04-02T21:21:51.150Z,96931.38
2023-04-02T21:24:19.410Z,96928.70
2023-04-02T21:26:47.709Z,96925.55
2023-04-02T21:29:16.072Z,96924.50
2023-04-02T21:31:44.229Z,96925.67
2023-04-02T21:34:15.650Z,96927.48
2023-04-02T21:36:46.050Z,96925.77
2023-04-02T21:39:20.655Z,96927.48
2023-04-02T21:41:50.941Z,96931.18
2023-04-02T21:44:21.689Z,96930.68
2023-04-02T21:46:51.922Z,96931.61
2023-04-02T21:49:23.146Z,96931.64
2023-04-02T21:51:52.180Z,96927.81
2023-04-02T21:54:20.159Z,96928.73
2023-04-02T21:56:48.646Z,96928.64
2023-04-02T21:59:17.901Z,96930.43
2023-04-02T22:01:49.097Z,96931.29
2023-04-02T22:04:25.566Z,96931.83
2023-04-02T22:06:54.208Z,96934.65
2023-04-02T22:09:24.398Z,96934.05
2023-04-02T22:11:55.328Z,96935.98
2023-04-02T22:14:23.565Z,96936.73
2023-04-02T22:16:52.296Z,96938.21
2023-04-02T22:19:21.497Z,96933.77
2023-04-02T22:21:49.895Z,96935.12
2023-04-02T22:24:19.214Z,96938.07
2023-04-02T22:26:47.257Z,96938.98
2023-04-02T22:29:16.654Z,96938.67
2023-04-02T22:31:44.828Z,96940.72
2023-04-02T22:34:12.835Z,96940.77
2023-04-02T22:36:41.379Z,96942.23
2023-04-02T22:39:12.094Z,96946.41
2023-04-02T22:41:40.489Z,96948.42
2023-04-02T22:44:15.535Z,96946.36
2023-04-02T22:46:43.795Z,96947.46
2023-04-02T22:49:11.878Z,96944.91
2023-04-02T22:51:40.244Z,96948.77
2023-04-02T22:54:08.416Z,96949.80
2023-04-02T22:56:37.758Z,96949.69
2023-04-02T22:59:06.010Z,96950.85
2023-04-02T23:01:36.101Z,96950.95
2023-04-02T23:04:05.462Z,96954.33
2023-04-02T23:06:33.576Z,96956.78
2023-04-02T23:09:01.573Z,96960.96
2023-04-02T23:11:29.723Z,96965.08
2023-04-02T23:13:58.410Z,96965.95
2023-04-02T23:16:29.032Z,96965.45
2023-04-02T23:18:57.856Z,96968.77
2023-04-02T23:21:26.534Z,96969.53
2023-04-02T23:23:54.786Z,96968.42
2023-04-02T23:26:27.246Z,96968.92
2023-04-02T23:28:55.840Z,96969.08
2023-04-02T23:31:25.304Z,96964.07
2023-04-02T23:33:53.836Z,96966.30
2023-04-02T23:36:23.608Z,96968.00
2023-04-02T23:38:56.998Z,96967.52
2023-04-02T23:41:27.198Z,96968.36
2023-04-02T23:43:56.766Z,96968.13
2023-04-02T23:46:26.010Z,96971.97
2023-04-02T23:48:55.839Z,96974.62
2023-04-02T23:51:24.792Z,96978.91
2023-04-02T23:53:55.515Z,96976.58
2023-04-02T23:56:24.688Z,96977.96
2023-04-02T23:58:52.877Z,96973.54
